createdAt,value
2023-04-11T00:01:50.244Z,99823.00
2023-04-11T00:04:21.294Z,99811.00
2023-04-11T00:06:49.841Z,99808.00
2023-04-11T00:09:19.381Z,99809.00
2023-04-11T00:11:49.908Z,99803.00
2023-04-11T00:14:19.686Z,99805.00
2023-04-11T00:16:50.117Z,99804.00
2023-04-11T00:19:18.405Z,99799.00
2023-04-11T00:21:46.837Z,99794.00
2023-04-11T00:24:15.332Z,99778.00
2023-04-11T00:26:44.742Z,99776.00
2023-04-11T00:29:13.169Z,99782.00
2023-04-11T00:31:42.219Z,99785.00
2023-04-11T00:34:10.459Z,99789.00
2023-04-11T00:36:39.513Z,99790.00
2023-04-11T00:39:09.081Z,99766.00
2023-04-11T00:41:37.491Z,99761.00
2023-04-11T00:44:06.810Z,99763.00
2023-04-11T00:46:36.193Z,99750.00
2023-04-11T00:49:05.029Z,99740.00
2023-04-11T00:51:33.496Z,99729.00
2023-04-11T00:54:02.204Z,99721.00
2023-04-11T00:56:31.236Z,99698.00
2023-04-11T00:58:59.596Z,99699.00
2023-04-11T01:01:30.411Z,99695.00
2023-04-11T01:04:01.348Z,99691.00
2023-04-11T01:06:31.480Z,99687.00
2023-04-11T01:08:59.771Z,99678.00
2023-04-11T01:11:28.159Z,99662.00
2023-04-11T01:13:56.719Z,99659.00
2023-04-11T01:16:25.017Z,99642.00
2023-04-11T01:18:53.411Z,99620.00
2023-04-11T01:21:22.572Z,99621.00
2023-04-11T01:23:53.055Z,99633.00
2023-04-11T01:26:21.703Z,99624.00
2023-04-11T01:28:49.994Z,99652.00
2023-04-11T01:31:18.684Z,99680.00
2023-04-11T01:33:46.701Z,99694.00
2023-04-11T01:36:15.196Z,99710.00
2023-04-11T01:38:43.609Z,99725.00
2023-04-11T01:41:11.998Z,99744.00
2023-04-11T01:43:40.381Z,99741.00
2023-04-11T01:46:09.310Z,99743.00
2023-04-11T01:48:43.318Z,99739.00
2023-04-11T01:51:12.073Z,99737.00
2023-04-11T01:53:40.195Z,99738.00
2023-04-11T01:56:10.051Z,99729.00
2023-04-11T01:58:38.258Z,99733.00
2023-04-11T02:01:06.608Z,99732.00
2023-04-11T02:03:35.086Z,99725.00
2023-04-11T02:06:04.075Z,99710.00
2023-04-11T02:08:32.201Z,99724.00
2023-04-11T02:11:00.277Z,99728.00
2023-04-11T02:13:28.353Z,99732.00
2023-04-11T02:15:56.719Z,99733.00
2023-04-11T02:18:29.543Z,99726.00
2023-04-11T02:20:57.628Z,99720.00
2023-04-11T02:23:25.693Z,99730.00
2023-04-11T02:25:53.758Z,99718.00
2023-04-11T02:28:22.849Z,99709.00
2023-04-11T02:30:54.284Z,99703.00
2023-04-11T02:33:22.788Z,99693.00
2023-04-11T02:35:51.183Z,99690.00
2023-04-11T02:38:19.236Z,99690.00
2023-04-11T02:40:48.316Z,99679.00
2023-04-11T02:43:17.794Z,99665.00
2023-04-11T02:45:46.015Z,99653.00
2023-04-11T02:48:17.427Z,99648.00
2023-04-11T02:50:47.091Z,99635.00
2023-04-11T02:53:16.713Z,99637.00
2023-04-11T02:55:49.403Z,99648.00
2023-04-11T02:58:20.334Z,99651.00
2023-04-11T03:00:51.716Z,99657.00
2023-04-11T03:03:20.018Z,99646.00
2023-04-11T03:05:49.897Z,99632.00
2023-04-11T03:08:23.195Z,99621.00
2023-04-11T03:10:54.026Z,99605.00
2023-04-11T03:13:24.393Z,99597.00
2023-04-11T03:15:52.476Z,99601.00
2023-04-11T03:18:22.883Z,99614.00
2023-04-11T03:20:51.452Z,99624.00
2023-04-11T03:23:19.921Z,99628.00
2023-04-11T03:25:48.617Z,99616.00
2023-04-11T03:28:19.263Z,99615.00
2023-04-11T03:30:48.975Z,99622.00
2023-04-11T03:33:21.824Z,99624.00
2023-04-11T03:35:51.556Z,99639.00
2023-04-11T03:38:21.077Z,99625.00
2023-04-11T03:40:49.385Z,99623.00
2023-04-11T03:43:21.317Z,99628.00
2023-04-11T03:45:52.029Z,99633.00
2023-04-11T03:48:42.671Z,99634.00
2023-04-11T03:51:10.961Z,99637.00
2023-04-11T03:54:01.412Z,99639.00
2023-04-11T03:56:34.820Z,99639.00
2023-04-11T03:59:02.686Z,99643.00
2023-04-11T04:05:48.061Z,99647.00
2023-04-11T04:08:17.109Z,99659.00
2023-04-11T04:10:48.170Z,99664.00
2023-04-11T04:13:17.901Z,99646.00
2023-04-11T04:15:55.134Z,99651.00
2023-04-11T04:18:26.937Z,99649.00
2023-04-11T04:20:55.017Z,99666.00
2023-04-11T04:23:27.079Z,99660.00
2023-04-11T04:26:13.729Z,99675.00
2023-04-11T04:28:46.347Z,99676.00
2023-04-11T04:31:25.795Z,99666.00
2023-04-11T04:34:10.155Z,99661.00
2023-04-11T04:36:49.418Z,99670.00
2023-04-11T04:39:25.752Z,99638.00
2023-04-11T04:41:58.932Z,99648.00
2023-04-11T04:44:33.387Z,99638.00
2023-04-11T04:47:08.505Z,99640.00
2023-04-11T04:49:36.983Z,99648.00
2023-04-11T04:52:05.320Z,99654.00
2023-04-11T04:54:33.750Z,99649.00
2023-04-11T04:57:02.219Z,99657.00
2023-04-11T04:59:31.029Z,99662.00
2023-04-11T05:02:08.400Z,99658.00
2023-04-11T05:04:37.056Z,99661.00
2023-04-11T05:07:05.595Z,99676.00
2023-04-11T05:09:35.419Z,99664.00
2023-04-11T05:12:13.979Z,99671.00
2023-04-11T05:14:42.954Z,99666.00
2023-04-11T05:17:11.333Z,99668.00
2023-04-11T05:19:40.087Z,99670.00
2023-04-11T05:22:08.476Z,99663.00
2023-04-11T05:24:41.308Z,99677.00
2023-04-11T05:27:14.095Z,99679.00
2023-04-11T05:29:43.417Z,99685.00
2023-04-11T05:32:12.301Z,99683.00
2023-04-11T05:34:58.784Z,99705.00
2023-04-11T05:37:46.308Z,99715.00
2023-04-11T05:40:14.649Z,99738.00
2023-04-11T05:42:42.944Z,99738.00
2023-04-11T05:45:11.728Z,99735.00
2023-04-11T05:47:40.061Z,99737.00
2023-04-11T05:50:08.918Z,99747.00
2023-04-11T05:52:37.814Z,99750.00
2023-04-11T05:55:08.113Z,99761.00
2023-04-11T05:57:36.413Z,99761.00
2023-04-11T06:00:16.591Z,99721.00
2023-04-11T06:02:45.363Z,99712.00
2023-04-11T06:05:13.713Z,99707.00
2023-04-11T06:07:42.017Z,99697.00
2023-04-11T06:10:10.668Z,99699.00
2023-04-11T06:12:39.788Z,99698.00
2023-04-11T06:15:09.741Z,99698.00
2023-04-11T06:17:38.498Z,99696.00
2023-04-11T06:20:08.820Z,99701.00
2023-04-11T06:22:37.116Z,99701.00
2023-04-11T06:25:05.465Z,99693.00
2023-04-11T06:27:33.928Z,99697.00
2023-04-11T06:30:01.990Z,99686.00
2023-04-11T06:32:30.174Z,99692.00
2023-04-11T06:35:00.184Z,99688.00
2023-04-11T06:37:28.444Z,99694.00
2023-04-11T06:39:56.399Z,99702.00
2023-04-11T06:42:24.351Z,99707.00
2023-04-11T06:44:53.890Z,99707.00
2023-04-11T06:47:22.025Z,99704.00
2023-04-11T06:49:49.969Z,99706.00
2023-04-11T06:52:21.119Z,99711.00
2023-04-11T06:54:49.671Z,99721.00
2023-04-11T06:57:18.249Z,99712.00
2023-04-11T06:59:46.317Z,99725.00
2023-04-11T07:02:15.188Z,99721.00
2023-04-11T07:04:44.512Z,99723.00
2023-04-11T07:07:12.750Z,99734.00
2023-04-11T07:09:40.977Z,99725.00
2023-04-11T07:12:09.271Z,99725.00
2023-04-11T07:14:37.269Z,99732.00
2023-04-11T07:17:05.316Z,99732.00
2023-04-11T07:19:33.293Z,99733.00
2023-04-11T07:22:01.729Z,99741.00
2023-04-11T07:24:30.930Z,99748.00
2023-04-11T07:26:59.569Z,99752.00
2023-04-11T07:29:27.825Z,99751.00
2023-04-11T07:31:56.267Z,99761.00
2023-04-11T07:34:24.759Z,99752.00
2023-04-11T07:37:01.305Z,99769.00
2023-04-11T07:39:29.689Z,99802.00
2023-04-11T07:41:58.520Z,99829.00
2023-04-11T07:44:27.454Z,99858.00
2023-04-11T07:46:55.943Z,99842.00
2023-04-11T07:49:25.481Z,99835.00
2023-04-11T07:51:55.615Z,99826.00
2023-04-11T07:54:25.485Z,99836.00
2023-04-11T07:56:54.638Z,99828.00
2023-04-11T07:59:22.971Z,99828.00
2023-04-11T08:02:02.531Z,99827.00
2023-04-11T08:04:34.856Z,99825.00
2023-04-11T08:07:03.702Z,99822.00
2023-04-11T08:09:31.982Z,99813.00
2023-04-11T08:12:00.251Z,99820.00
2023-04-11T08:14:32.215Z,99822.00
2023-04-11T08:17:01.585Z,99822.00
2023-04-11T08:19:30.505Z,99830.00
2023-04-11T08:21:59.085Z,99843.00
2023-04-11T08:24:27.428Z,99833.00
2023-04-11T08:26:56.265Z,99830.00
2023-04-11T08:29:24.714Z,99832.00
2023-04-11T08:31:53.574Z,99838.00
2023-04-11T08:34:21.926Z,99836.00
2023-04-11T08:36:50.021Z,99837.00
2023-04-11T08:39:18.215Z,99842.00
2023-04-11T08:41:47.731Z,99844.00
2023-04-11T08:44:16.344Z,99842.00
2023-04-11T08:46:44.963Z,99840.00
2023-04-11T08:49:14.286Z,99836.00
2023-04-11T08:51:44.929Z,99835.00
2023-04-11T08:54:13.754Z,99841.00
2023-04-11T08:56:43.645Z,99836.00
2023-04-11T08:59:11.539Z,99838.00
2023-04-11T09:01:40.952Z,99830.00
2023-04-11T09:04:10.794Z,99835.00
2023-04-11T09:06:40.578Z,99825.00
2023-04-11T09:09:09.955Z,99828.00
2023-04-11T09:11:55.579Z,99834.00
2023-04-11T09:14:27.421Z,99836.00
2023-04-11T09:17:01.188Z,99824.00
2023-04-11T09:19:31.723Z,99831.00
2023-04-11T09:22:02.135Z,99832.00
2023-04-11T09:24:32.815Z,99832.00
2023-04-11T09:27:17.478Z,99824.00
2023-04-11T09:29:47.109Z,99821.00
2023-04-11T09:32:35.592Z,99829.00
2023-04-11T09:35:11.247Z,99833.00
2023-04-11T09:37:59.319Z,99833.00
2023-04-11T09:40:32.180Z,99830.00
2023-04-11T09:43:05.335Z,99830.00
2023-04-11T09:45:40.878Z,99847.00
2023-04-11T09:48:10.256Z,99843.00
2023-04-11T09:50:38.715Z,99835.00
2023-04-11T09:53:11.085Z,99842.00
2023-04-11T09:55:40.698Z,99840.00
2023-04-11T09:58:09.175Z,99841.00
2023-04-11T10:00:37.514Z,99826.00
2023-04-11T10:03:05.785Z,99834.00
2023-04-11T10:05:34.758Z,99839.00
2023-04-11T10:08:27.712Z,99825.00
2023-04-11T10:10:57.579Z,99824.00
2023-04-11T10:13:44.955Z,99823.00
2023-04-11T10:16:21.572Z,99829.00
2023-04-11T10:18:57.278Z,99824.00
2023-04-11T10:21:31.430Z,99832.00
2023-04-11T10:24:16.605Z,99827.00
2023-04-11T10:26:59.728Z,99830.00
2023-04-11T10:29:33.467Z,99830.00
2023-04-11T10:32:17.689Z,99829.00
2023-04-11T10:34:54.729Z,99829.00
2023-04-11T10:37:32.952Z,99829.00
2023-04-11T10:40:01.229Z,99834.00
2023-04-11T10:42:36.474Z,99837.00
2023-04-11T10:45:24.727Z,99837.00
2023-04-11T10:48:11.437Z,99849.00
2023-04-11T10:50:47.298Z,99842.00
2023-04-11T10:53:36.520Z,99852.00
2023-04-11T10:56:05.106Z,99837.00
2023-04-11T10:58:38.522Z,99834.00
2023-04-11T11:01:26.677Z,99841.00
2023-04-11T11:04:06.261Z,99837.00
2023-04-11T11:06:46.241Z,99835.00
2023-04-11T11:09:23.722Z,99835.00
2023-04-11T11:12:14.941Z,99841.00
2023-04-11T11:14:45.439Z,99845.00
2023-04-11T11:17:16.526Z,99854.00
2023-04-11T11:19:49.344Z,99862.00
2023-04-11T11:22:28.963Z,99858.00
2023-04-11T11:25:08.876Z,99865.00
2023-04-11T11:27:36.947Z,99871.00
2023-04-11T11:30:14.741Z,99875.00
2023-04-11T11:32:42.948Z,99887.00
2023-04-11T11:35:14.259Z,99883.00
2023-04-11T11:37:42.369Z,99880.00
2023-04-11T11:40:14.679Z,99887.00
2023-04-11T11:42:46.945Z,99893.00
2023-04-11T11:45:15.942Z,99890.00
2023-04-11T11:47:45.996Z,99897.00
2023-04-11T11:50:27.286Z,99888.00
2023-04-11T11:52:57.010Z,99899.00
2023-04-11T11:55:25.300Z,99889.00
2023-04-11T11:57:56.819Z,99890.00
2023-04-11T12:00:26.230Z,99910.00
2023-04-11T12:02:55.893Z,99886.00
2023-04-11T12:05:30.917Z,99901.00
2023-04-11T12:08:01.537Z,99903.00
2023-04-11T12:10:51.573Z,99891.00
2023-04-11T12:13:23.065Z,99898.00
2023-04-11T12:15:56.506Z,99904.00
2023-04-11T12:18:25.580Z,99908.00
2023-04-11T12:20:54.377Z,99906.00
2023-04-11T12:23:24.225Z,99907.00
2023-04-11T12:25:52.533Z,99897.00
2023-04-11T12:28:20.815Z,99899.00
2023-04-11T12:30:49.539Z,99904.00
2023-04-11T12:33:18.748Z,99899.00
2023-04-11T12:35:50.114Z,99906.00
2023-04-11T12:38:18.811Z,99900.00
2023-04-11T12:40:47.347Z,99905.00
2023-04-11T12:43:15.744Z,99908.00
2023-04-11T12:45:43.738Z,99909.00
2023-04-11T12:48:12.139Z,99902.00
2023-04-11T12:50:40.563Z,99908.00
2023-04-11T12:53:08.790Z,99917.00
2023-04-11T12:55:36.855Z,99912.00
2023-04-11T12:58:05.418Z,99917.00
2023-04-11T13:00:34.020Z,99928.00
2023-04-11T13:03:05.073Z,99924.00
2023-04-11T13:05:34.074Z,99923.00
2023-04-11T13:08:03.236Z,99941.00
2023-04-11T13:10:31.420Z,99936.00
2023-04-11T13:13:08.357Z,99933.00
2023-04-11T13:15:41.093Z,99967.00
2023-04-11T13:18:09.514Z,99953.00
2023-04-11T13:20:37.865Z,99966.00
2023-04-11T13:23:06.271Z,99965.00
2023-04-11T13:25:34.525Z,99967.00
2023-04-11T13:28:02.929Z,99976.00
2023-04-11T13:30:33.828Z,99972.00
2023-04-11T13:33:02.337Z,99973.00
2023-04-11T13:35:30.597Z,99972.00
2023-04-11T13:37:59.043Z,99969.00
2023-04-11T13:40:27.400Z,99972.00
2023-04-11T13:42:56.294Z,99973.00
2023-04-11T13:45:24.600Z,99972.00
2023-04-11T13:47:53.201Z,99979.00
2023-04-11T13:50:21.582Z,99969.00
2023-04-11T13:52:50.222Z,99976.00
2023-04-11T13:55:19.759Z,99978.00
2023-04-11T13:57:51.306Z,99983.00
2023-04-11T14:00:22.778Z,99986.00
2023-04-11T14:02:52.847Z,99989.00
2023-04-11T14:05:21.565Z,99987.00
2023-04-11T14:07:49.836Z,99995.00
2023-04-11T14:10:18.931Z,100001.00
2023-04-11T14:12:47.363Z,99999.00
2023-04-11T14:15:19.981Z,100020.00
2023-04-11T14:17:48.736Z,100048.00
2023-04-11T14:20:17.464Z,100040.00
2023-04-11T14:22:46.345Z,100054.00
2023-04-11T14:25:16.123Z,100056.00
2023-04-11T14:27:46.535Z,100050.00
2023-04-11T14:30:14.599Z,100037.00
2023-04-11T14:32:42.633Z,100034.00
2023-04-11T14:35:11.112Z,100046.00
2023-04-11T14:37:39.179Z,100055.00
2023-04-11T14:40:11.518Z,100052.00
2023-04-11T14:42:39.996Z,100067.00
2023-04-11T14:45:08.751Z,100063.00
2023-04-11T14:47:37.618Z,100065.00
2023-04-11T14:50:06.362Z,100080.00
2023-04-11T14:52:34.445Z,100090.00
2023-04-11T14:55:02.944Z,100110.00
2023-04-11T14:57:54.146Z,100132.00
2023-04-11T15:00:24.356Z,100153.00
2023-04-11T15:02:57.928Z,100154.00
2023-04-11T15:05:28.842Z,100131.00
2023-04-11T15:07:57.278Z,100093.00
2023-04-11T15:10:26.723Z,100098.00
2023-04-11T15:12:54.762Z,100105.00
2023-04-11T15:15:25.334Z,100124.00
2023-04-11T15:18:20.848Z,100143.00
2023-04-11T15:20:49.404Z,100175.00
2023-04-11T15:23:18.517Z,100155.00
2023-04-11T15:25:54.789Z,100156.00
2023-04-11T15:28:23.564Z,100143.00
2023-04-11T15:30:53.360Z,100138.00
2023-04-11T15:33:25.037Z,100118.00
2023-04-11T15:35:54.315Z,100125.00
2023-04-11T15:38:23.434Z,100125.00
2023-04-11T15:40:56.538Z,100138.00
2023-04-11T15:43:24.775Z,100138.00
2023-04-11T15:45:54.542Z,100140.00
2023-04-11T15:48:23.116Z,100155.00
2023-04-11T15:50:51.471Z,100155.00
2023-04-11T15:53:19.662Z,100139.00
2023-04-11T15:55:48.028Z,100134.00
2023-04-11T15:58:16.242Z,100123.00
2023-04-11T16:00:47.273Z,100134.00
2023-04-11T16:03:16.877Z,100127.00
2023-04-11T16:05:45.999Z,100125.00
2023-04-11T16:08:14.278Z,100122.00
2023-04-11T16:10:42.137Z,100117.00
2023-04-11T16:13:10.453Z,100101.00
2023-04-11T16:15:38.482Z,100098.00
2023-04-11T16:18:07.265Z,100088.00
2023-04-11T16:20:35.817Z,100091.00
2023-04-11T16:23:04.049Z,100094.00
2023-04-11T16:25:34.303Z,100106.00
2023-04-11T16:28:02.336Z,100120.00
2023-04-11T16:30:30.819Z,100122.00
2023-04-11T16:32:59.059Z,100129.00
2023-04-11T16:35:27.270Z,100124.00
2023-04-11T16:37:55.390Z,100119.00
2023-04-11T16:40:23.585Z,100122.00
2023-04-11T16:42:51.531Z,100115.00
2023-04-11T16:45:19.996Z,100118.00
2023-04-11T16:47:48.090Z,100112.00
2023-04-11T16:50:18.011Z,100109.00
2023-04-11T16:52:46.575Z,100105.00
2023-04-11T16:55:15.259Z,100110.00
2023-04-11T16:57:51.913Z,100101.00
2023-04-11T17:01:01.724Z,100107.00
2023-04-11T17:03:31.322Z,100107.00
2023-04-11T17:05:59.357Z,100118.00
2023-04-11T17:08:27.314Z,100108.00
2023-04-11T17:11:03.637Z,100115.00
2023-04-11T17:13:32.102Z,100115.00
2023-04-11T17:16:00.258Z,100118.00
2023-04-11T17:18:28.631Z,100119.00
2023-04-11T17:20:56.856Z,100119.00
2023-04-11T17:23:38.963Z,100116.00
2023-04-11T17:26:10.285Z,100123.00
2023-04-11T17:28:38.761Z,100127.00
2023-04-11T17:31:14.562Z,100125.00
2023-04-11T17:33:42.958Z,100122.00
2023-04-11T17:36:12.802Z,100120.00
2023-04-11T17:38:43.764Z,100122.00
2023-04-11T17:41:15.166Z,100132.00
2023-04-11T17:43:44.596Z,100126.00
2023-04-11T17:46:13.136Z,100123.00
2023-04-11T17:48:41.249Z,100124.00
2023-04-11T17:51:09.237Z,100114.00
2023-04-11T17:53:37.356Z,100121.00
2023-04-11T17:56:06.298Z,100131.00
2023-04-11T17:58:34.917Z,100132.00
2023-04-11T18:01:05.941Z,100131.00
2023-04-11T18:03:35.563Z,100133.00
2023-04-11T18:06:04.177Z,100136.00
2023-04-11T18:08:49.163Z,100141.00
2023-04-11T18:11:19.523Z,100133.00
2023-04-11T18:13:50.056Z,100144.00
2023-04-11T18:16:18.627Z,100146.00
2023-04-11T18:18:47.718Z,100153.00
2023-04-11T18:21:17.058Z,100148.00
2023-04-11T18:23:48.139Z,100147.00
2023-04-11T18:26:16.084Z,100153.00
2023-04-11T18:28:44.116Z,100150.00
2023-04-11T18:31:12.287Z,100145.00
2023-04-11T18:33:43.703Z,100147.00
2023-04-11T18:36:13.054Z,100158.00
2023-04-11T18:38:41.328Z,100159.00
2023-04-11T18:41:09.703Z,100158.00
2023-04-11T18:43:38.776Z,100165.00
2023-04-11T18:46:10.403Z,100153.00
2023-04-11T18:48:38.619Z,100160.00
2023-04-11T18:51:07.082Z,100153.00
2023-04-11T18:53:36.890Z,100159.00
2023-04-11T18:56:05.424Z,100160.00
2023-04-11T18:58:34.762Z,100157.00
2023-04-11T19:01:14.610Z,100158.00
2023-04-11T19:03:44.217Z,100150.00
2023-04-11T19:06:13.177Z,100149.00
2023-04-11T19:08:42.120Z,100147.00
2023-04-11T19:11:10.206Z,100144.00
2023-04-11T19:13:38.308Z,100143.00
2023-04-11T19:16:07.343Z,100150.00
2023-04-11T19:18:44.477Z,100147.00
2023-04-11T19:21:12.476Z,100141.00
2023-04-11T19:23:40.706Z,100144.00
2023-04-11T19:26:11.639Z,100140.00
2023-04-11T19:28:42.073Z,100140.00
2023-04-11T19:31:10.480Z,100140.00
2023-04-11T19:33:39.173Z,100134.00
2023-04-11T19:36:07.710Z,100140.00
2023-04-11T19:38:36.328Z,100136.00
2023-04-11T19:41:18.828Z,100132.00
2023-04-11T19:43:50.370Z,100133.00
2023-04-11T19:46:18.730Z,100133.00
2023-04-11T19:48:47.494Z,100133.00
2023-04-11T19:51:15.567Z,100133.00
2023-04-11T19:53:43.635Z,100135.00
2023-04-11T19:56:11.649Z,100140.00
2023-04-11T19:58:40.219Z,100134.00
2023-04-11T20:01:09.931Z,100133.00
2023-04-11T20:03:38.317Z,100138.00
2023-04-11T20:06:06.666Z,100133.00
2023-04-11T20:08:36.864Z,100125.00
2023-04-11T20:11:05.881Z,100126.00
2023-04-11T20:13:36.137Z,100129.00
2023-04-11T20:16:08.912Z,100133.00
2023-04-11T20:18:36.998Z,100130.00
2023-04-11T20:21:07.940Z,100125.00
2023-04-11T20:23:37.327Z,100120.00
2023-04-11T20:26:05.504Z,100123.00
2023-04-11T20:28:33.776Z,100124.00
2023-04-11T20:31:05.190Z,100117.00
2023-04-11T20:33:33.450Z,100123.00
2023-04-11T20:36:03.377Z,100120.00
2023-04-11T20:38:31.652Z,100119.00
2023-04-11T20:41:03.989Z,100113.00
2023-04-11T20:43:32.499Z,100101.00
2023-04-11T20:46:08.670Z,100097.00
2023-04-11T20:48:37.859Z,100098.00
2023-04-11T20:51:08.021Z,100090.00
2023-04-11T20:53:39.116Z,100093.00
2023-04-11T20:56:07.393Z,100084.00
2023-04-11T20:58:35.332Z,100084.00
2023-04-11T21:01:03.401Z,100083.00
2023-04-11T21:03:33.852Z,100076.00
2023-04-11T21:06:04.602Z,100075.00
2023-04-11T21:08:33.080Z,100073.00
2023-04-11T21:11:02.331Z,100075.00
2023-04-11T21:13:30.278Z,100068.00
2023-04-11T21:15:59.721Z,100063.00
2023-04-11T21:18:27.945Z,100077.00
2023-04-11T21:20:56.276Z,100070.00
2023-04-11T21:23:24.578Z,100073.00
2023-04-11T21:25:52.729Z,100068.00
2023-04-11T21:28:20.996Z,100066.00
2023-04-11T21:30:49.982Z,100069.00
2023-04-11T21:33:18.646Z,100069.00
2023-04-11T21:35:46.958Z,100073.00
2023-04-11T21:38:15.816Z,100070.00
2023-04-11T21:40:43.946Z,100065.00
2023-04-11T21:43:12.080Z,100068.00
2023-04-11T21:45:40.348Z,100077.00
2023-04-11T21:48:08.467Z,100067.00
2023-04-11T21:50:37.137Z,100063.00
2023-04-11T21:53:05.197Z,100064.00
2023-04-11T21:55:33.186Z,100068.00
2023-04-11T21:58:01.372Z,100068.00
2023-04-11T22:00:29.636Z,100068.00
2023-04-11T22:02:58.025Z,100066.00
2023-04-11T22:05:26.732Z,100070.00
2023-04-11T22:08:30.172Z,100054.00
2023-04-11T22:10:58.839Z,100049.00
2023-04-11T22:13:27.377Z,100051.00
2023-04-11T22:16:06.018Z,100057.00
2023-04-11T22:18:47.093Z,100051.00
2023-04-11T22:21:19.956Z,100055.00
2023-04-11T22:23:56.325Z,100044.00
2023-04-11T22:26:30.109Z,100041.00
2023-04-11T22:29:00.007Z,100030.00
2023-04-11T22:31:34.723Z,100035.00
2023-04-11T22:34:02.822Z,100039.00
2023-04-11T22:36:37.421Z,100040.00
2023-04-11T22:39:09.768Z,100032.00
2023-04-11T22:41:38.878Z,100026.00
2023-04-11T22:44:07.573Z,100019.00
2023-04-11T22:46:39.597Z,100014.00
2023-04-11T22:49:10.067Z,100023.00
2023-04-11T22:51:41.397Z,100018.00
2023-04-11T22:54:10.310Z,100020.00
2023-04-11T22:56:38.496Z,100016.00
2023-04-11T22:59:07.232Z,99998.00
2023-04-11T23:01:36.058Z,100003.00
2023-04-11T23:04:04.861Z,100000.00
2023-04-11T23:06:33.053Z,100007.00
2023-04-11T23:09:04.369Z,100007.00
2023-04-11T23:11:32.836Z,99991.00
2023-04-11T23:14:01.459Z,99990.00
2023-04-11T23:16:29.804Z,100002.00
2023-04-11T23:18:58.609Z,99989.00
2023-04-11T23:21:26.875Z,99986.00
2023-04-11T23:23:55.012Z,99976.00
2023-04-11T23:26:23.126Z,99976.00
2023-04-11T23:28:51.164Z,99970.00
2023-04-11T23:31:19.260Z,99968.00
2023-04-11T23:33:47.519Z,99977.00
2023-04-11T23:36:15.577Z,99971.00
2023-04-11T23:38:43.814Z,99970.00
2023-04-11T23:41:11.948Z,99971.00
2023-04-11T23:43:40.346Z,99950.00
2023-04-11T23:46:08.546Z,99954.00
2023-04-11T23:48:37.365Z,99953.00
2023-04-11T23:51:05.555Z,99944.00
2023-04-11T23:53:33.620Z,99938.00
2023-04-11T23:56:01.710Z,99940.00
2023-04-11T23:58:30.015Z,99931.00
